Weather History for KADW - February, 2013

Change the Weather History Date:

Wednesday, February 27, 2013

  Actual Average Record
Temperature  
Mean Temperature 47 °F -  
Max Temperature 54 °F 48 °F 73 °F (1997)
Min Temperature 40 °F 29 °F 17 °F (2014)
Degree Days  
Heating Degree Days 18    
Moisture  
Dew Point 42 °F    
Average Humidity 91    
Maximum Humidity 100    
Minimum Humidity 48    
Precipitation  
Precipitation 0.01 in - - ()
Sea Level Pressure  
Sea Level Pressure 29.57 in    
Wind  
Wind Speed 8 mph (NW)    
Max Wind Speed 17 mph    
Max Gust Speed 22 mph    
Visibility 5 miles    
Events Fog , Rain    
Averages and records for this station are not official NWS values.
T = Trace of Precipitation, MM = Missing Value Source: NWS Daily Summary

Daily Weather History Graph

Daily Weather History Graph

Search for Another Location

Airport or City:

Trip Planner

Search our weather history database for the weather conditions in past years. The results will help you decide how hot, cold, wet, or windy it might be!

Date:

Astronomy

Feb. 27, 2013 Rise Set
Actual Time 6:42 AM EST 5:58 PM EST
Civil Twilight 6:15 AM EST 6:25 PM EST
Nautical Twilight 5:44 AM EST 6:56 PM EST
Astronomical Twilight 5:13 AM EST 7:26 PM EST
Moon 8:15 PM EST (2/27) 7:18 AM EST (2/27)
Length of Visible Light 12h 09m
Length of Day
11h 16m
Waning Gibbous, 96% of the Moon is Illuminated
Feb 27
Waning Gibbous
Mar 4
Last Quarter
Mar 11
New
Mar 19
First Quarter
Mar 27
Full

Hourly Weather History & Observations

Time (EST) Temp. Windchill Dew Point Humidity Pressure Visibility Wind Dir Wind Speed Gust Speed Precip Events Conditions
12:26 AM 46.4 °F 41.9 °F 46.4 °F 100% 29.59 in 10.0 mi ENE 9.2 mph - N/A   Light Drizzle
12:33 AM 46.4 °F 41.1 °F 46.4 °F 100% 29.59 in 10.0 mi ENE 11.5 mph - N/A   Overcast
12:55 AM 46.2 °F 41.7 °F 46.0 °F 99% 29.58 in 10.0 mi ENE 9.2 mph - 0.00 in   Overcast
1:01 AM 46.4 °F 42.9 °F 46.4 °F 100% 29.58 in 10.0 mi NE 6.9 mph - N/A   Light Drizzle
1:12 AM 46.4 °F 41.9 °F 46.4 °F 100% 29.56 in 7.0 mi ENE 9.2 mph - N/A   Overcast
1:55 AM 46.2 °F 41.2 °F 46.0 °F 99% 29.55 in 10.0 mi NE 10.4 mph - 0.00 in   Overcast
2:19 AM 46.4 °F 42.9 °F 46.4 °F 100% 29.53 in 2.5 mi ENE 6.9 mph - N/A   Overcast
2:23 AM 46.4 °F 42.4 °F 46.4 °F 100% 29.53 in 1.8 mi ENE 8.1 mph - N/A   Overcast
2:27 AM 46.4 °F 44.3 °F 46.4 °F 100% 29.53 in 1.2 mi ENE 4.6 mph - N/A   Overcast
2:28 AM 46.4 °F 45.2 °F 46.4 °F 100% 29.53 in 1.2 mi Variable 3.5 mph - N/A   Overcast
2:30 AM 46.4 °F 43.5 °F 46.4 °F 100% 29.53 in 1.2 mi East 5.8 mph - N/A   Overcast
2:31 AM 46.4 °F 44.3 °F 46.4 °F 100% 29.53 in 1.0 mi East 4.6 mph - N/A   Overcast
2:33 AM 46.4 °F 44.3 °F 46.4 °F 100% 29.53 in 1.0 mi ENE 4.6 mph - N/A   Overcast
2:35 AM 46.4 °F 44.3 °F 46.4 °F 100% 29.52 in 1.0 mi East 4.6 mph - N/A   Overcast
2:37 AM 46.4 °F 44.3 °F 46.4 °F 100% 29.52 in 0.8 mi East 4.6 mph - N/A   Overcast
2:40 AM 46.4 °F 44.3 °F 46.4 °F 100% 29.52 in 0.8 mi ENE 4.6 mph - N/A   Overcast
2:41 AM 46.4 °F 43.5 °F 46.4 °F 100% 29.52 in 0.8 mi ENE 5.8 mph - N/A   Overcast
2:44 AM 46.4 °F 43.5 °F 46.4 °F 100% 29.52 in 0.8 mi East 5.8 mph - N/A   Mist
2:48 AM 46.4 °F 44.3 °F 46.4 °F 100% 29.52 in 0.5 mi ENE 4.6 mph - N/A Fog Fog
2:55 AM 46.0 °F 43.1 °F 45.9 °F 99% 29.52 in 0.5 mi NE 5.8 mph - N/A Fog Fog
3:00 AM 46.4 °F 44.3 °F 46.4 °F 100% 29.52 in 0.5 mi ENE 4.6 mph - N/A Fog Fog
3:03 AM 46.4 °F 44.3 °F 46.4 °F 100% 29.51 in 0.5 mi NE 4.6 mph - N/A Fog Fog
3:25 AM 46.4 °F 44.3 °F 44.6 °F 93% 29.52 in 0.5 mi NNW 4.6 mph - N/A Fog Fog
3:42 AM 44.6 °F 42.2 °F 44.6 °F 100% 29.52 in 0.5 mi WNW 4.6 mph - N/A Fog Fog
3:43 AM 44.6 °F 41.4 °F 44.6 °F 100% 29.52 in 0.5 mi WNW 5.8 mph - N/A Fog Light Drizzle
3:52 AM 44.6 °F 42.2 °F 44.6 °F 100% 29.52 in 0.5 mi NW 4.6 mph - N/A Fog Fog
3:55 AM 45.1 °F 42.0 °F 45.0 °F 99% 29.52 in 0.5 mi NW 5.8 mph - 0.00 in Fog Fog
4:00 AM 44.6 °F 40.7 °F 44.6 °F 100% 29.52 in 0.5 mi WNW 6.9 mph - N/A Fog Fog
4:01 AM 44.6 °F 40.7 °F 44.6 °F 100% 29.52 in 0.5 mi WNW 6.9 mph - N/A Fog Fog
4:08 AM 44.6 °F 39.7 °F 44.6 °F 100% 29.53 in 0.5 mi WNW 9.2 mph - N/A Fog Light Drizzle
4:10 AM 44.6 °F 39.7 °F 44.6 °F 100% 29.53 in 0.8 mi WNW 9.2 mph - N/A   Light Drizzle
4:16 AM 44.6 °F 40.2 °F 44.6 °F 100% 29.53 in 0.8 mi NW 8.1 mph - N/A   Light Drizzle
4:18 AM 44.6 °F 40.7 °F 44.6 °F 100% 29.53 in 1.0 mi NW 6.9 mph - N/A   Light Drizzle
4:21 AM 44.6 °F 41.4 °F 44.6 °F 100% 29.52 in 1.0 mi NW 5.8 mph - N/A   Overcast
4:25 AM 44.6 °F 41.4 °F 44.6 °F 100% 29.53 in 1.0 mi NW 5.8 mph - N/A Rain Light Rain
4:29 AM 44.6 °F 42.2 °F 44.6 °F 100% 29.52 in 1.0 mi NW 4.6 mph - N/A   Light Drizzle
4:35 AM 44.6 °F 40.7 °F 44.6 °F 100% 29.52 in 1.2 mi NW 6.9 mph - N/A   Light Drizzle
4:39 AM 44.6 °F 40.7 °F 44.6 °F 100% 29.53 in 1.2 mi WNW 6.9 mph - N/A   Overcast
4:45 AM 44.6 °F 40.2 °F 44.6 °F 100% 29.53 in 1.0 mi WNW 8.1 mph - N/A   Overcast
4:48 AM 44.6 °F 39.7 °F 44.6 °F 100% 29.53 in 1.2 mi WNW 9.2 mph - N/A   Overcast
4:49 AM 44.6 °F 40.2 °F 44.6 °F 100% 29.53 in 1.2 mi WNW 8.1 mph - N/A   Overcast
4:54 AM 44.6 °F 39.7 °F 44.6 °F 100% 29.53 in 1.2 mi WNW 9.2 mph - N/A   Overcast
4:59 AM 44.6 °F 39.7 °F 44.6 °F 100% 29.53 in 1.5 mi WNW 9.2 mph - N/A   Overcast
5:01 AM 44.6 °F 39.7 °F 44.6 °F 100% 29.53 in 1.5 mi WNW 9.2 mph - N/A   Overcast
5:04 AM 44.6 °F 39.7 °F 42.8 °F 93% 29.53 in 1.5 mi WNW 9.2 mph - N/A   Overcast
5:11 AM 44.6 °F 40.7 °F 42.8 °F 93% 29.54 in 2.0 mi WNW 6.9 mph - N/A   Overcast
5:21 AM 44.6 °F 41.4 °F 42.8 °F 93% 29.53 in 3.0 mi WNW 5.8 mph - N/A   Light Drizzle
5:31 AM 44.6 °F 40.2 °F 42.8 °F 93% 29.53 in 4.0 mi West 8.1 mph - N/A   Overcast
5:45 AM 44.6 °F 40.7 °F 42.8 °F 93% 29.53 in 6.0 mi WNW 6.9 mph - N/A   Overcast
5:55 AM 43.5 °F 38.9 °F 43.3 °F 99% 29.53 in 6.0 mi WNW 8.1 mph - 0.00 in   Overcast
6:09 AM 42.8 °F 37.5 °F 42.8 °F 100% 29.53 in 7.0 mi WNW 9.2 mph - N/A   Overcast
6:43 AM 41.0 °F 33.9 °F 41.0 °F 100% 29.56 in 9.0 mi West 12.7 mph - N/A   Overcast
6:55 AM 40.6 °F 32.7 °F 40.5 °F 99% 29.56 in 10.0 mi West 15.0 mph - N/A   Overcast
7:05 AM 41.0 °F 33.1 °F 41.0 °F 100% 29.57 in 10.0 mi West 15.0 mph - N/A   Overcast
7:55 AM 40.6 °F 34.3 °F 40.5 °F 99% 29.62 in 10.0 mi West 10.4 mph - N/A   Overcast
7:56 AM 41.0 °F 34.7 °F 41.0 °F 100% 29.62 in 10.0 mi West 10.4 mph - N/A   Overcast
8:12 AM 41.0 °F 34.7 °F 41.0 °F 100% 29.62 in 10.0 mi West 10.4 mph - N/A   Overcast
8:26 AM 41.0 °F 32.5 °F 41.0 °F 100% 29.62 in 10.0 mi West 17.3 mph - N/A   Overcast
8:32 AM 41.0 °F 34.3 °F 41.0 °F 100% 29.63 in 10.0 mi West 11.5 mph - N/A   Overcast
8:48 AM 42.8 °F 35.4 °F 39.2 °F 87% 29.64 in 10.0 mi West 15.0 mph - N/A   Mostly Cloudy
8:55 AM 42.1 °F 34.2 °F 39.6 °F 91% 29.64 in 10.0 mi West 16.1 mph - N/A   Mostly Cloudy
9:02 AM 42.8 °F 35.8 °F 39.2 °F 87% 29.63 in 10.0 mi West 13.8 mph - N/A   Scattered Clouds
9:10 AM 42.8 °F 36.2 °F 39.2 °F 87% 29.64 in 10.0 mi West 12.7 mph - N/A   Mostly Cloudy
9:21 AM 42.8 °F 35.4 °F 39.2 °F 87% 29.64 in 10.0 mi West 15.0 mph - N/A   Scattered Clouds
9:32 AM 44.6 °F 38.4 °F 39.2 °F 81% 29.64 in 10.0 mi West 12.7 mph - N/A   Mostly Cloudy
9:36 AM 44.6 °F 38.8 °F 39.2 °F 81% 29.65 in 10.0 mi WNW 11.5 mph - N/A   Scattered Clouds
9:55 AM 45.0 °F 37.9 °F 39.4 °F 81% 29.65 in 10.0 mi West 16.1 mph - N/A   Partly Cloudy
10:55 AM 47.8 °F - 39.0 °F 71% 29.65 in 10.0 mi WNW 12.7 mph 21.9 mph N/A   Partly Cloudy
11:55 AM 51.4 °F - 39.6 °F 64% 29.65 in 10.0 mi West 10.4 mph - N/A   Scattered Clouds
12:55 PM 52.2 °F - 38.1 °F 59% 29.64 in 10.0 mi West 10.4 mph - N/A   Scattered Clouds
1:55 PM 53.4 °F - 38.3 °F 57% 29.64 in 10.0 mi West 6.9 mph - N/A   Mostly Cloudy
2:55 PM 54.7 °F - 39.2 °F 56% 29.64 in 10.0 mi Variable 6.9 mph - N/A   Overcast
3:55 PM 54.7 °F - 37.8 °F 53% 29.63 in 10.0 mi SW 8.1 mph - N/A   Overcast
4:55 PM 53.8 °F - 35.8 °F 51% 29.64 in 10.0 mi WNW 5.8 mph - N/A   Overcast
5:55 PM 52.5 °F - 33.4 °F 48% 29.67 in 10.0 mi NW 12.7 mph - N/A   Overcast
6:55 PM 50.0 °F - 32.9 °F 52% 29.70 in 10.0 mi NW 11.5 mph - N/A   Overcast
7:55 PM 48.7 °F - 32.0 °F 52% 29.70 in 10.0 mi NW 8.1 mph - N/A   Overcast
8:55 PM 48.7 °F - 31.5 °F 51% 29.71 in 10.0 mi WNW 4.6 mph - N/A   Overcast
9:55 PM 43.7 °F - 31.5 °F 62% 29.69 in 10.0 mi Calm Calm - N/A   Clear
10:55 PM 41.5 °F - 33.4 °F 73% 29.68 in 10.0 mi Calm Calm - N/A   Mostly Cloudy
11:55 PM 40.8 °F - 33.6 °F 76% 29.67 in 10.0 mi Calm Calm - N/A   Overcast